sensor_id;sensor_type;location;lat;lon;timestamp;temperature;humidity
42201;DHT22;27869;51.442;7.540;2024-02-23T00:00:10;7.30;99.90
42201;DHT22;27869;51.442;7.540;2024-02-23T00:02:39;7.30;99.90
42201;DHT22;27869;51.442;7.540;2024-02-23T00:05:07;7.30;99.90
42201;DHT22;27869;51.442;7.540;2024-02-23T00:07:33;7.30;99.90
42201;DHT22;27869;51.442;7.540;2024-02-23T00:10:00;7.20;99.90
42201;DHT22;27869;51.442;7.540;2024-02-23T00:12:28;7.20;99.90
42201;DHT22;27869;51.442;7.540;2024-02-23T00:14:55;7.20;99.90
42201;DHT22;27869;51.442;7.540;2024-02-23T00:17:21;7.10;99.90
42201;DHT22;27869;51.442;7.540;2024-02-23T00:19:50;7.10;99.90
42201;DHT22;27869;51.442;7.540;2024-02-23T00:22:18;7.00;99.90
42201;DHT22;27869;51.442;7.540;2024-02-23T00:24:45;7.00;99.90
42201;DHT22;27869;51.442;7.540;2024-02-23T00:27:12;7.00;99.90
42201;DHT22;27869;51.442;7.540;2024-02-23T00:29:39;6.90;99.90
42201;DHT22;27869;51.442;7.540;2024-02-23T00:32:06;6.90;99.90
42201;DHT22;27869;51.442;7.540;2024-02-23T00:34:33;6.80;99.90
42201;DHT22;27869;51.442;7.540;2024-02-23T00:37:02;6.70;99.90
42201;DHT22;27869;51.442;7.540;2024-02-23T00:39:29;6.70;99.90
42201;DHT22;27869;51.442;7.540;2024-02-23T00:41:56;6.70;99.90
42201;DHT22;27869;51.442;7.540;2024-02-23T00:44:23;6.70;99.90
42201;DHT22;27869;51.442;7.540;2024-02-23T00:46:50;6.70;99.90
42201;DHT22;27869;51.442;7.540;2024-02-23T00:49:17;6.60;99.90
42201;DHT22;27869;51.442;7.540;2024-02-23T00:51:44;6.60;99.90
42201;DHT22;27869;51.442;7.540;2024-02-23T00:54:12;6.60;99.90
42201;DHT22;27869;51.442;7.540;2024-02-23T00:56:39;6.60;99.90
42201;DHT22;27869;51.442;7.540;2024-02-23T00:59:06;6.50;99.90
42201;DHT22;27869;51.442;7.540;2024-02-23T01:01:33;6.60;99.90
42201;DHT22;27869;51.442;7.540;2024-02-23T01:04:00;6.50;99.90
42201;DHT22;27869;51.442;7.540;2024-02-23T01:06:27;6.50;99.90
42201;DHT22;27869;51.442;7.540;2024-02-23T01:08:54;6.50;99.90
42201;DHT22;27869;51.442;7.540;2024-02-23T01:11:22;6.50;99.90
42201;DHT22;27869;51.442;7.540;2024-02-23T01:13:49;6.50;99.90
42201;DHT22;27869;51.442;7.540;2024-02-23T01:16:16;6.50;99.90
42201;DHT22;27869;51.442;7.540;2024-02-23T01:18:43;6.50;99.90
42201;DHT22;27869;51.442;7.540;2024-02-23T01:21:10;6.50;99.90
42201;DHT22;27869;51.442;7.540;2024-02-23T01:23:37;6.50;99.90
42201;DHT22;27869;51.442;7.540;2024-02-23T01:26:03;6.50;99.90
42201;DHT22;27869;51.442;7.540;2024-02-23T01:28:32;6.60;99.90
42201;DHT22;27869;51.442;7.540;2024-02-23T01:30:58;6.60;99.90
42201;DHT22;27869;51.442;7.540;2024-02-23T01:33:26;6.50;99.90
42201;DHT22;27869;51.442;7.540;2024-02-23T01:35:53;6.50;99.90
42201;DHT22;27869;51.442;7.540;2024-02-23T01:38:20;6.50;99.90
42201;DHT22;27869;51.442;7.540;2024-02-23T01:40:47;6.50;99.90
42201;DHT22;27869;51.442;7.540;2024-02-23T01:43:14;6.50;99.90
42201;DHT22;27869;51.442;7.540;2024-02-23T01:45:42;6.40;99.90
42201;DHT22;27869;51.442;7.540;2024-02-23T01:48:09;6.40;99.90
42201;DHT22;27869;51.442;7.540;2024-02-23T01:50:37;6.40;99.90
42201;DHT22;27869;51.442;7.540;2024-02-23T01:53:04;6.40;99.90
42201;DHT22;27869;51.442;7.540;2024-02-23T01:55:32;6.40;99.90
42201;DHT22;27869;51.442;7.540;2024-02-23T01:58:00;6.30;99.90
42201;DHT22;27869;51.442;7.540;2024-02-23T02:00:27;6.30;99.90
42201;DHT22;27869;51.442;7.540;2024-02-23T02:02:56;6.30;99.90
42201;DHT22;27869;51.442;7.540;2024-02-23T02:05:24;6.30;99.90
42201;DHT22;27869;51.442;7.540;2024-02-23T02:07:52;6.30;99.90
42201;DHT22;27869;51.442;7.540;2024-02-23T02:10:24;6.20;99.90
42201;DHT22;27869;51.442;7.540;2024-02-23T02:12:52;6.30;99.90
42201;DHT22;27869;51.442;7.540;2024-02-23T02:15:18;6.30;99.90
42201;DHT22;27869;51.442;7.540;2024-02-23T02:17:47;6.30;99.90
42201;DHT22;27869;51.442;7.540;2024-02-23T02:20:18;6.30;99.90
42201;DHT22;27869;51.442;7.540;2024-02-23T02:22:45;6.30;99.90
42201;DHT22;27869;51.442;7.540;2024-02-23T02:25:14;6.20;99.90
42201;DHT22;27869;51.442;7.540;2024-02-23T02:27:41;6.20;99.90
42201;DHT22;27869;51.442;7.540;2024-02-23T02:30:11;6.30;99.90
42201;DHT22;27869;51.442;7.540;2024-02-23T02:32:38;6.30;99.90
42201;DHT22;27869;51.442;7.540;2024-02-23T02:35:06;6.30;99.90
42201;DHT22;27869;51.442;7.540;2024-02-23T02:37:34;6.30;99.90
42201;DHT22;27869;51.442;7.540;2024-02-23T02:40:01;6.20;99.90
42201;DHT22;27869;51.442;7.540;2024-02-23T02:42:29;6.30;99.90
42201;DHT22;27869;51.442;7.540;2024-02-23T02:44:56;6.30;99.90
42201;DHT22;27869;51.442;7.540;2024-02-23T02:47:23;6.30;99.90
42201;DHT22;27869;51.442;7.540;2024-02-23T02:49:50;6.30;99.90
42201;DHT22;27869;51.442;7.540;2024-02-23T02:52:17;6.30;99.90
42201;DHT22;27869;51.442;7.540;2024-02-23T02:54:47;6.30;99.90
42201;DHT22;27869;51.442;7.540;2024-02-23T02:57:15;6.30;99.90
42201;DHT22;27869;51.442;7.540;2024-02-23T02:59:42;6.30;99.90
42201;DHT22;27869;51.442;7.540;2024-02-23T03:02:10;6.30;99.90
42201;DHT22;27869;51.442;7.540;2024-02-23T03:04:36;6.30;99.90
42201;DHT22;27869;51.442;7.540;2024-02-23T03:07:03;6.30;99.90
42201;DHT22;27869;51.442;7.540;2024-02-23T03:09:30;6.30;99.90
42201;DHT22;27869;51.442;7.540;2024-02-23T03:11:59;6.30;99.90
42201;DHT22;27869;51.442;7.540;2024-02-23T03:14:25;6.20;99.90
42201;DHT22;27869;51.442;7.540;2024-02-23T03:16:52;6.20;99.90
42201;DHT22;27869;51.442;7.540;2024-02-23T03:19:19;6.20;99.90
42201;DHT22;27869;51.442;7.540;2024-02-23T03:21:48;6.20;99.90
42201;DHT22;27869;51.442;7.540;2024-02-23T03:24:14;6.20;99.90
42201;DHT22;27869;51.442;7.540;2024-02-23T03:26:41;6.20;99.90
42201;DHT22;27869;51.442;7.540;2024-02-23T03:29:10;6.20;99.90
42201;DHT22;27869;51.442;7.540;2024-02-23T03:31:37;6.20;99.90
42201;DHT22;27869;51.442;7.540;2024-02-23T03:34:04;6.20;99.90
42201;DHT22;27869;51.442;7.540;2024-02-23T03:36:31;6.20;99.90
42201;DHT22;27869;51.442;7.540;2024-02-23T03:38:57;6.20;99.90
42201;DHT22;27869;51.442;7.540;2024-02-23T03:41:30;6.20;99.90
42201;DHT22;27869;51.442;7.540;2024-02-23T03:43:57;6.20;99.90
42201;DHT22;27869;51.442;7.540;2024-02-23T03:46:25;6.10;99.90
42201;DHT22;27869;51.442;7.540;2024-02-23T03:48:52;6.10;99.90
42201;DHT22;27869;51.442;7.540;2024-02-23T03:51:19;6.10;99.90
42201;DHT22;27869;51.442;7.540;2024-02-23T03:53:46;6.10;99.90
42201;DHT22;27869;51.442;7.540;2024-02-23T03:56:13;6.10;99.90
42201;DHT22;27869;51.442;7.540;2024-02-23T03:58:39;6.10;99.90
42201;DHT22;27869;51.442;7.540;2024-02-23T04:01:06;6.10;99.90
42201;DHT22;27869;51.442;7.540;2024-02-23T04:03:35;6.10;99.90
42201;DHT22;27869;51.442;7.540;2024-02-23T04:06:02;6.10;99.90
42201;DHT22;27869;51.442;7.540;2024-02-23T04:08:29;6.10;99.90
42201;DHT22;27869;51.442;7.540;2024-02-23T04:10:57;6.10;99.90
42201;DHT22;27869;51.442;7.540;2024-02-23T04:13:23;6.10;99.90
42201;DHT22;27869;51.442;7.540;2024-02-23T04:15:50;6.10;99.90
42201;DHT22;27869;51.442;7.540;2024-02-23T04:18:17;6.10;99.90
42201;DHT22;27869;51.442;7.540;2024-02-23T04:20:45;6.10;99.90
42201;DHT22;27869;51.442;7.540;2024-02-23T04:23:12;6.10;99.90
42201;DHT22;27869;51.442;7.540;2024-02-23T04:25:40;6.10;99.90
42201;DHT22;27869;51.442;7.540;2024-02-23T04:28:07;6.10;99.90
42201;DHT22;27869;51.442;7.540;2024-02-23T04:30:33;6.10;99.90
42201;DHT22;27869;51.442;7.540;2024-02-23T04:33:00;6.10;99.90
42201;DHT22;27869;51.442;7.540;2024-02-23T04:35:27;6.10;99.90
42201;DHT22;27869;51.442;7.540;2024-02-23T04:37:55;6.10;99.90
42201;DHT22;27869;51.442;7.540;2024-02-23T04:40:22;6.10;99.90
42201;DHT22;27869;51.442;7.540;2024-02-23T04:42:49;6.10;99.90
42201;DHT22;27869;51.442;7.540;2024-02-23T04:45:16;6.10;99.90
42201;DHT22;27869;51.442;7.540;2024-02-23T04:47:43;6.00;99.90
42201;DHT22;27869;51.442;7.540;2024-02-23T04:50:12;6.00;99.90
42201;DHT22;27869;51.442;7.540;2024-02-23T04:52:39;6.00;99.90
42201;DHT22;27869;51.442;7.540;2024-02-23T04:55:07;6.00;99.90
42201;DHT22;27869;51.442;7.540;2024-02-23T04:57:36;6.00;99.90
42201;DHT22;27869;51.442;7.540;2024-02-23T05:00:04;6.00;99.90
42201;DHT22;27869;51.442;7.540;2024-02-23T05:02:33;6.00;99.90
42201;DHT22;27869;51.442;7.540;2024-02-23T05:05:01;6.00;99.90
42201;DHT22;27869;51.442;7.540;2024-02-23T05:07:30;6.00;99.90
42201;DHT22;27869;51.442;7.540;2024-02-23T05:09:56;6.00;99.90
42201;DHT22;27869;51.442;7.540;2024-02-23T05:12:25;6.00;99.90
42201;DHT22;27869;51.442;7.540;2024-02-23T05:14:52;6.00;99.90
42201;DHT22;27869;51.442;7.540;2024-02-23T05:17:19;6.00;99.90
42201;DHT22;27869;51.442;7.540;2024-02-23T05:19:45;6.00;99.90
42201;DHT22;27869;51.442;7.540;2024-02-23T05:22:13;6.00;99.90
42201;DHT22;27869;51.442;7.540;2024-02-23T05:24:39;5.90;99.90
42201;DHT22;27869;51.442;7.540;2024-02-23T05:27:06;6.00;99.90
42201;DHT22;27869;51.442;7.540;2024-02-23T05:29:34;5.90;99.90
42201;DHT22;27869;51.442;7.540;2024-02-23T05:32:01;5.90;99.90
42201;DHT22;27869;51.442;7.540;2024-02-23T05:34:28;5.90;99.90
42201;DHT22;27869;51.442;7.540;2024-02-23T05:36:55;5.90;99.90
42201;DHT22;27869;51.442;7.540;2024-02-23T05:39:22;5.90;99.90
42201;DHT22;27869;51.442;7.540;2024-02-23T05:41:49;5.90;99.90
42201;DHT22;27869;51.442;7.540;2024-02-23T05:44:16;5.90;99.90
42201;DHT22;27869;51.442;7.540;2024-02-23T05:46:44;5.90;99.90
42201;DHT22;27869;51.442;7.540;2024-02-23T05:49:11;5.80;99.90
42201;DHT22;27869;51.442;7.540;2024-02-23T05:51:38;5.90;99.90
42201;DHT22;27869;51.442;7.540;2024-02-23T05:54:05;5.80;99.90
42201;DHT22;27869;51.442;7.540;2024-02-23T05:56:32;5.80;99.90
42201;DHT22;27869;51.442;7.540;2024-02-23T05:58:59;5.80;99.90
42201;DHT22;27869;51.442;7.540;2024-02-23T06:01:25;5.80;99.90
42201;DHT22;27869;51.442;7.540;2024-02-23T06:03:54;5.80;99.90
42201;DHT22;27869;51.442;7.540;2024-02-23T06:06:20;5.80;99.90
42201;DHT22;27869;51.442;7.540;2024-02-23T06:08:47;5.80;99.90
42201;DHT22;27869;51.442;7.540;2024-02-23T06:11:15;5.80;99.90
42201;DHT22;27869;51.442;7.540;2024-02-23T06:13:42;5.70;99.90
42201;DHT22;27869;51.442;7.540;2024-02-23T06:16:10;5.70;99.90
42201;DHT22;27869;51.442;7.540;2024-02-23T06:18:37;5.70;99.90
42201;DHT22;27869;51.442;7.540;2024-02-23T06:21:13;5.70;99.90
42201;DHT22;27869;51.442;7.540;2024-02-23T06:23:40;5.70;99.90
42201;DHT22;27869;51.442;7.540;2024-02-23T06:26:07;5.70;99.90
42201;DHT22;27869;51.442;7.540;2024-02-23T06:28:34;5.60;99.90
42201;DHT22;27869;51.442;7.540;2024-02-23T06:31:03;5.60;99.90
42201;DHT22;27869;51.442;7.540;2024-02-23T06:33:30;5.60;99.90
42201;DHT22;27869;51.442;7.540;2024-02-23T06:35:57;5.60;99.90
42201;DHT22;27869;51.442;7.540;2024-02-23T06:38:25;5.60;99.90
42201;DHT22;27869;51.442;7.540;2024-02-23T06:40:52;5.60;99.90
42201;DHT22;27869;51.442;7.540;2024-02-23T06:43:20;5.50;99.90
42201;DHT22;27869;51.442;7.540;2024-02-23T06:45:47;5.50;99.90
42201;DHT22;27869;51.442;7.540;2024-02-23T06:48:14;5.50;99.90
42201;DHT22;27869;51.442;7.540;2024-02-23T06:50:41;5.50;99.90
42201;DHT22;27869;51.442;7.540;2024-02-23T06:53:08;5.50;99.90
42201;DHT22;27869;51.442;7.540;2024-02-23T06:55:36;5.50;99.90
42201;DHT22;27869;51.442;7.540;2024-02-23T06:58:03;5.50;99.90
42201;DHT22;27869;51.442;7.540;2024-02-23T07:00:30;5.50;99.90
42201;DHT22;27869;51.442;7.540;2024-02-23T07:02:57;5.60;99.90
42201;DHT22;27869;51.442;7.540;2024-02-23T07:05:24;5.60;99.90
42201;DHT22;27869;51.442;7.540;2024-02-23T07:07:51;5.60;99.90
42201;DHT22;27869;51.442;7.540;2024-02-23T07:10:18;5.60;99.90
42201;DHT22;27869;51.442;7.540;2024-02-23T07:12:47;5.60;99.90
42201;DHT22;27869;51.442;7.540;2024-02-23T07:15:14;5.60;99.90
42201;DHT22;27869;51.442;7.540;2024-02-23T07:17:41;5.60;99.90
42201;DHT22;27869;51.442;7.540;2024-02-23T07:20:09;5.70;99.90
42201;DHT22;27869;51.442;7.540;2024-02-23T07:22:35;5.70;99.90
42201;DHT22;27869;51.442;7.540;2024-02-23T07:25:03;5.70;99.90
42201;DHT22;27869;51.442;7.540;2024-02-23T07:27:30;5.70;99.90
42201;DHT22;27869;51.442;7.540;2024-02-23T07:29:58;5.70;99.90
42201;DHT22;27869;51.442;7.540;2024-02-23T07:32:25;5.70;99.90
42201;DHT22;27869;51.442;7.540;2024-02-23T07:34:52;5.70;99.90
42201;DHT22;27869;51.442;7.540;2024-02-23T07:37:19;5.70;99.90
42201;DHT22;27869;51.442;7.540;2024-02-23T07:39:46;5.70;99.90
42201;DHT22;27869;51.442;7.540;2024-02-23T07:42:13;5.70;99.90
42201;DHT22;27869;51.442;7.540;2024-02-23T07:44:44;5.70;99.90
42201;DHT22;27869;51.442;7.540;2024-02-23T07:47:12;5.70;99.90
42201;DHT22;27869;51.442;7.540;2024-02-23T07:49:39;5.80;99.90
42201;DHT22;27869;51.442;7.540;2024-02-23T07:52:07;5.80;99.90
42201;DHT22;27869;51.442;7.540;2024-02-23T07:54:34;5.80;99.90
42201;DHT22;27869;51.442;7.540;2024-02-23T07:57:01;5.80;99.90
42201;DHT22;27869;51.442;7.540;2024-02-23T07:59:30;5.90;99.90
42201;DHT22;27869;51.442;7.540;2024-02-23T08:01:57;5.90;99.90
42201;DHT22;27869;51.442;7.540;2024-02-23T08:04:25;6.00;99.90
42201;DHT22;27869;51.442;7.540;2024-02-23T08:06:52;6.00;99.90
42201;DHT22;27869;51.442;7.540;2024-02-23T08:09:18;6.00;99.90
42201;DHT22;27869;51.442;7.540;2024-02-23T08:11:47;6.00;99.90
42201;DHT22;27869;51.442;7.540;2024-02-23T08:14:14;6.10;99.90
42201;DHT22;27869;51.442;7.540;2024-02-23T08:16:41;6.10;99.90
42201;DHT22;27869;51.442;7.540;2024-02-23T08:19:08;6.20;99.90
42201;DHT22;27869;51.442;7.540;2024-02-23T08:21:36;6.20;99.90
42201;DHT22;27869;51.442;7.540;2024-02-23T08:24:04;6.20;99.90
42201;DHT22;27869;51.442;7.540;2024-02-23T08:26:31;6.30;99.90
42201;DHT22;27869;51.442;7.540;2024-02-23T08:28:59;6.30;99.90
42201;DHT22;27869;51.442;7.540;2024-02-23T08:31:26;6.30;99.90
42201;DHT22;27869;51.442;7.540;2024-02-23T08:33:53;6.40;99.90
42201;DHT22;27869;51.442;7.540;2024-02-23T08:36:20;6.40;99.90
42201;DHT22;27869;51.442;7.540;2024-02-23T08:38:48;6.40;99.90
42201;DHT22;27869;51.442;7.540;2024-02-23T08:41:15;6.50;99.90
42201;DHT22;27869;51.442;7.540;2024-02-23T08:43:41;6.50;99.90
42201;DHT22;27869;51.442;7.540;2024-02-23T08:46:08;6.60;99.90
42201;DHT22;27869;51.442;7.540;2024-02-23T08:48:35;6.60;99.90
42201;DHT22;27869;51.442;7.540;2024-02-23T08:51:02;6.60;99.90
42201;DHT22;27869;51.442;7.540;2024-02-23T08:53:29;6.70;99.90
42201;DHT22;27869;51.442;7.540;2024-02-23T08:55:57;6.70;99.90
42201;DHT22;27869;51.442;7.540;2024-02-23T08:58:24;6.80;99.90
42201;DHT22;27869;51.442;7.540;2024-02-23T09:00:51;6.80;99.90
42201;DHT22;27869;51.442;7.540;2024-02-23T09:03:18;6.90;99.90
42201;DHT22;27869;51.442;7.540;2024-02-23T09:05:45;7.00;99.90
42201;DHT22;27869;51.442;7.540;2024-02-23T09:08:13;7.00;99.90
42201;DHT22;27869;51.442;7.540;2024-02-23T09:10:40;7.10;99.90
42201;DHT22;27869;51.442;7.540;2024-02-23T09:13:10;7.20;99.90
42201;DHT22;27869;51.442;7.540;2024-02-23T09:15:37;7.20;99.90
42201;DHT22;27869;51.442;7.540;2024-02-23T09:18:04;7.20;99.90
42201;DHT22;27869;51.442;7.540;2024-02-23T09:20:31;7.30;99.90
42201;DHT22;27869;51.442;7.540;2024-02-23T09:22:58;7.30;99.90
42201;DHT22;27869;51.442;7.540;2024-02-23T09:25:25;7.30;99.90
42201;DHT22;27869;51.442;7.540;2024-02-23T09:27:56;7.30;99.90
42201;DHT22;27869;51.442;7.540;2024-02-23T09:30:25;7.30;99.90
42201;DHT22;27869;51.442;7.540;2024-02-23T09:32:51;7.30;99.90
42201;DHT22;27869;51.442;7.540;2024-02-23T09:35:19;7.40;99.90
42201;DHT22;27869;51.442;7.540;2024-02-23T09:37:46;7.40;99.90
42201;DHT22;27869;51.442;7.540;2024-02-23T09:40:14;7.40;99.90
42201;DHT22;27869;51.442;7.540;2024-02-23T09:42:42;7.40;99.90
42201;DHT22;27869;51.442;7.540;2024-02-23T09:45:08;7.50;99.90
42201;DHT22;27869;51.442;7.540;2024-02-23T09:47:42;7.50;99.90
42201;DHT22;27869;51.442;7.540;2024-02-23T09:50:10;7.50;99.90
42201;DHT22;27869;51.442;7.540;2024-02-23T09:52:37;7.60;99.90
42201;DHT22;27869;51.442;7.540;2024-02-23T09:55:07;7.60;99.90
42201;DHT22;27869;51.442;7.540;2024-02-23T09:57:34;7.60;99.90
42201;DHT22;27869;51.442;7.540;2024-02-23T10:00:01;7.60;99.90
42201;DHT22;27869;51.442;7.540;2024-02-23T10:02:32;7.60;99.90
42201;DHT22;27869;51.442;7.540;2024-02-23T10:05:01;7.70;99.90
42201;DHT22;27869;51.442;7.540;2024-02-23T10:07:29;7.70;99.90
42201;DHT22;27869;51.442;7.540;2024-02-23T10:09:56;7.70;99.90
42201;DHT22;27869;51.442;7.540;2024-02-23T10:12:23;7.70;99.90
42201;DHT22;27869;51.442;7.540;2024-02-23T10:14:49;7.80;99.90
42201;DHT22;27869;51.442;7.540;2024-02-23T10:17:17;7.80;99.90
42201;DHT22;27869;51.442;7.540;2024-02-23T10:19:44;7.80;99.90
42201;DHT22;27869;51.442;7.540;2024-02-23T10:22:12;7.90;99.90
42201;DHT22;27869;51.442;7.540;2024-02-23T10:24:42;7.90;99.90
42201;DHT22;27869;51.442;7.540;2024-02-23T10:27:09;7.90;99.90
42201;DHT22;27869;51.442;7.540;2024-02-23T10:29:36;7.90;99.90
42201;DHT22;27869;51.442;7.540;2024-02-23T10:32:04;8.00;99.90
42201;DHT22;27869;51.442;7.540;2024-02-23T10:34:32;8.00;99.90
42201;DHT22;27869;51.442;7.540;2024-02-23T10:37:03;8.10;99.90
42201;DHT22;27869;51.442;7.540;2024-02-23T10:39:36;8.10;99.90
42201;DHT22;27869;51.442;7.540;2024-02-23T10:42:04;8.10;99.90
42201;DHT22;27869;51.442;7.540;2024-02-23T10:44:35;8.10;99.90
42201;DHT22;27869;51.442;7.540;2024-02-23T10:47:04;8.10;99.90
42201;DHT22;27869;51.442;7.540;2024-02-23T10:49:31;8.10;99.90
42201;DHT22;27869;51.442;7.540;2024-02-23T10:52:00;8.10;99.90
42201;DHT22;27869;51.442;7.540;2024-02-23T10:54:27;8.10;99.90
42201;DHT22;27869;51.442;7.540;2024-02-23T10:56:56;8.20;99.90
42201;DHT22;27869;51.442;7.540;2024-02-23T10:59:23;8.20;99.90
42201;DHT22;27869;51.442;7.540;2024-02-23T11:01:51;8.20;99.90
42201;DHT22;27869;51.442;7.540;2024-02-23T11:04:20;8.30;99.90
42201;DHT22;27869;51.442;7.540;2024-02-23T11:06:51;8.30;99.90
42201;DHT22;27869;51.442;7.540;2024-02-23T11:09:21;8.30;99.90
42201;DHT22;27869;51.442;7.540;2024-02-23T11:11:53;8.30;99.90
42201;DHT22;27869;51.442;7.540;2024-02-23T11:14:30;8.40;99.90
42201;DHT22;27869;51.442;7.540;2024-02-23T11:16:59;8.40;99.90
42201;DHT22;27869;51.442;7.540;2024-02-23T11:19:36;8.40;99.90
42201;DHT22;27869;51.442;7.540;2024-02-23T11:22:03;8.40;99.90
42201;DHT22;27869;51.442;7.540;2024-02-23T11:24:31;8.50;99.90
42201;DHT22;27869;51.442;7.540;2024-02-23T11:26:59;8.50;99.90
42201;DHT22;27869;51.442;7.540;2024-02-23T11:29:35;8.50;99.90
42201;DHT22;27869;51.442;7.540;2024-02-23T11:32:13;8.50;99.90
42201;DHT22;27869;51.442;7.540;2024-02-23T11:34:40;8.50;99.90
42201;DHT22;27869;51.442;7.540;2024-02-23T11:37:10;8.50;99.90
42201;DHT22;27869;51.442;7.540;2024-02-23T11:39:38;8.50;99.90
42201;DHT22;27869;51.442;7.540;2024-02-23T11:42:06;8.50;99.90
42201;DHT22;27869;51.442;7.540;2024-02-23T11:44:35;8.60;99.90
42201;DHT22;27869;51.442;7.540;2024-02-23T11:47:02;8.60;99.90
42201;DHT22;27869;51.442;7.540;2024-02-23T11:49:29;8.70;99.90
42201;DHT22;27869;51.442;7.540;2024-02-23T11:51:57;8.70;99.90
42201;DHT22;27869;51.442;7.540;2024-02-23T11:54:24;8.70;99.90
42201;DHT22;27869;51.442;7.540;2024-02-23T11:56:51;8.70;99.90
42201;DHT22;27869;51.442;7.540;2024-02-23T11:59:19;8.70;99.90
42201;DHT22;27869;51.442;7.540;2024-02-23T12:01:48;8.70;99.90
42201;DHT22;27869;51.442;7.540;2024-02-23T12:04:14;8.60;99.90
42201;DHT22;27869;51.442;7.540;2024-02-23T12:06:42;8.60;99.90
42201;DHT22;27869;51.442;7.540;2024-02-23T12:09:09;8.60;99.90
42201;DHT22;27869;51.442;7.540;2024-02-23T12:11:37;8.70;99.90
42201;DHT22;27869;51.442;7.540;2024-02-23T12:14:04;8.70;99.90
42201;DHT22;27869;51.442;7.540;2024-02-23T12:16:33;8.70;99.90
42201;DHT22;27869;51.442;7.540;2024-02-23T12:19:01;8.70;99.90
42201;DHT22;27869;51.442;7.540;2024-02-23T12:21:28;8.70;99.90
42201;DHT22;27869;51.442;7.540;2024-02-23T12:23:55;8.80;99.90
42201;DHT22;27869;51.442;7.540;2024-02-23T12:26:22;8.80;99.90
42201;DHT22;27869;51.442;7.540;2024-02-23T12:28:49;8.80;99.90
42201;DHT22;27869;51.442;7.540;2024-02-23T12:31:23;8.80;99.90
42201;DHT22;27869;51.442;7.540;2024-02-23T12:33:52;8.80;99.90
42201;DHT22;27869;51.442;7.540;2024-02-23T12:36:20;8.80;99.90
42201;DHT22;27869;51.442;7.540;2024-02-23T12:38:47;8.90;99.90
42201;DHT22;27869;51.442;7.540;2024-02-23T12:41:14;8.80;99.90
42201;DHT22;27869;51.442;7.540;2024-02-23T12:43:41;8.80;99.90
42201;DHT22;27869;51.442;7.540;2024-02-23T12:46:08;8.80;99.90
42201;DHT22;27869;51.442;7.540;2024-02-23T12:48:35;8.80;99.90
42201;DHT22;27869;51.442;7.540;2024-02-23T12:51:02;8.80;99.90
42201;DHT22;27869;51.442;7.540;2024-02-23T12:53:35;8.90;99.90
42201;DHT22;27869;51.442;7.540;2024-02-23T12:56:04;8.90;99.90
42201;DHT22;27869;51.442;7.540;2024-02-23T12:58:31;8.90;99.90
42201;DHT22;27869;51.442;7.540;2024-02-23T13:00:58;8.90;99.90
42201;DHT22;27869;51.442;7.540;2024-02-23T13:03:26;8.90;99.90
42201;DHT22;27869;51.442;7.540;2024-02-23T13:05:53;8.90;99.90
42201;DHT22;27869;51.442;7.540;2024-02-23T13:08:20;8.90;99.90
42201;DHT22;27869;51.442;7.540;2024-02-23T13:10:49;8.90;99.90
42201;DHT22;27869;51.442;7.540;2024-02-23T13:13:16;8.90;99.90
42201;DHT22;27869;51.442;7.540;2024-02-23T13:15:43;9.00;99.90
42201;DHT22;27869;51.442;7.540;2024-02-23T13:18:10;9.00;99.90
42201;DHT22;27869;51.442;7.540;2024-02-23T13:20:38;8.90;99.90
42201;DHT22;27869;51.442;7.540;2024-02-23T13:23:07;8.90;99.90
42201;DHT22;27869;51.442;7.540;2024-02-23T13:25:34;8.90;99.90
42201;DHT22;27869;51.442;7.540;2024-02-23T13:28:02;8.90;99.90
42201;DHT22;27869;51.442;7.540;2024-02-23T13:30:30;8.90;99.90
42201;DHT22;27869;51.442;7.540;2024-02-23T13:32:56;8.90;99.90
42201;DHT22;27869;51.442;7.540;2024-02-23T13:35:23;8.90;99.90
42201;DHT22;27869;51.442;7.540;2024-02-23T13:37:51;8.90;99.90
42201;DHT22;27869;51.442;7.540;2024-02-23T13:40:18;8.90;99.90
42201;DHT22;27869;51.442;7.540;2024-02-23T13:42:45;8.90;99.90
42201;DHT22;27869;51.442;7.540;2024-02-23T13:45:16;8.90;99.90
42201;DHT22;27869;51.442;7.540;2024-02-23T13:47:56;8.80;99.90
42201;DHT22;27869;51.442;7.540;2024-02-23T13:50:23;8.80;99.90
42201;DHT22;27869;51.442;7.540;2024-02-23T13:52:50;8.80;99.90
42201;DHT22;27869;51.442;7.540;2024-02-23T13:55:17;8.80;99.90
42201;DHT22;27869;51.442;7.540;2024-02-23T13:57:46;8.80;99.90
42201;DHT22;27869;51.442;7.540;2024-02-23T14:00:13;8.90;99.90
42201;DHT22;27869;51.442;7.540;2024-02-23T14:02:42;8.90;99.90
42201;DHT22;27869;51.442;7.540;2024-02-23T14:05:10;8.90;99.90
42201;DHT22;27869;51.442;7.540;2024-02-23T14:07:37;8.90;99.90
42201;DHT22;27869;51.442;7.540;2024-02-23T14:10:05;8.90;99.90
42201;DHT22;27869;51.442;7.540;2024-02-23T14:12:35;9.00;99.90
42201;DHT22;27869;51.442;7.540;2024-02-23T14:15:02;9.00;99.90
42201;DHT22;27869;51.442;7.540;2024-02-23T14:17:30;9.00;99.90
42201;DHT22;27869;51.442;7.540;2024-02-23T14:19:58;9.00;99.90
42201;DHT22;27869;51.442;7.540;2024-02-23T14:22:26;9.00;99.90
42201;DHT22;27869;51.442;7.540;2024-02-23T14:24:53;9.00;99.90
42201;DHT22;27869;51.442;7.540;2024-02-23T14:27:20;9.00;99.90
42201;DHT22;27869;51.442;7.540;2024-02-23T14:29:47;9.00;99.90
42201;DHT22;27869;51.442;7.540;2024-02-23T14:32:15;9.00;99.90
42201;DHT22;27869;51.442;7.540;2024-02-23T14:34:43;9.00;99.90
42201;DHT22;27869;51.442;7.540;2024-02-23T14:37:11;9.00;99.90
42201;DHT22;27869;51.442;7.540;2024-02-23T14:39:38;9.00;99.90
42201;DHT22;27869;51.442;7.540;2024-02-23T14:42:05;8.90;99.90
42201;DHT22;27869;51.442;7.540;2024-02-23T14:44:34;8.90;99.90
42201;DHT22;27869;51.442;7.540;2024-02-23T14:47:01;9.00;99.90
42201;DHT22;27869;51.442;7.540;2024-02-23T14:49:28;9.00;99.90
42201;DHT22;27869;51.442;7.540;2024-02-23T14:51:55;8.90;99.90
42201;DHT22;27869;51.442;7.540;2024-02-23T14:54:23;8.90;99.90
42201;DHT22;27869;51.442;7.540;2024-02-23T14:56:51;8.90;99.90
42201;DHT22;27869;51.442;7.540;2024-02-23T14:59:18;8.90;99.90
42201;DHT22;27869;51.442;7.540;2024-02-23T15:01:45;8.90;99.90
42201;DHT22;27869;51.442;7.540;2024-02-23T15:04:12;8.90;99.90
42201;DHT22;27869;51.442;7.540;2024-02-23T15:06:38;8.90;99.90
42201;DHT22;27869;51.442;7.540;2024-02-23T15:09:05;8.90;99.90
42201;DHT22;27869;51.442;7.540;2024-02-23T15:11:34;8.90;99.90
42201;DHT22;27869;51.442;7.540;2024-02-23T15:14:01;8.90;99.90
42201;DHT22;27869;51.442;7.540;2024-02-23T15:16:28;8.90;99.90
42201;DHT22;27869;51.442;7.540;2024-02-23T15:18:56;8.80;99.90
42201;DHT22;27869;51.442;7.540;2024-02-23T15:21:23;8.80;99.90
42201;DHT22;27869;51.442;7.540;2024-02-23T15:23:50;8.80;99.90
42201;DHT22;27869;51.442;7.540;2024-02-23T15:26:17;8.80;99.90
42201;DHT22;27869;51.442;7.540;2024-02-23T15:28:45;8.80;99.90
42201;DHT22;27869;51.442;7.540;2024-02-23T15:31:12;8.80;99.90
42201;DHT22;27869;51.442;7.540;2024-02-23T15:33:39;8.80;99.90
42201;DHT22;27869;51.442;7.540;2024-02-23T15:36:07;8.80;99.90
42201;DHT22;27869;51.442;7.540;2024-02-23T15:38:34;8.80;99.90
42201;DHT22;27869;51.442;7.540;2024-02-23T15:41:02;8.70;99.90
42201;DHT22;27869;51.442;7.540;2024-02-23T15:43:29;8.80;99.90
42201;DHT22;27869;51.442;7.540;2024-02-23T15:45:57;8.80;99.90